Time;durP1;ratioP1;P1;durP2;ratioP2;P2;SDS_P1;SDS_P2;PMS_P1;PMS_P2;Temp;Humidity;BMP_temperature;BMP_pressure;BME280_temperature;BME280_humidity;BME280_pressure;Samples;Min_cycle;Max_cycle;Signal;HPM_P1;HPM_P2
2021/07/18 00:01:07;;;;;;;8.97;4.20;;;;;;;;;;5030683;28;20843;-50
2021/07/18 00:03:32;;;;;;;4.23;3.93;;;;;;;;;;5030792;28;20758;-51
2021/07/18 00:05:58;;;;;;;4.27;4.03;;;;;;;;;;5031202;28;20381;-52
2021/07/18 00:08:24;;;;;;;3.60;3.30;;;;;;;;;;5030840;28;20910;-50
2021/07/18 00:10:52;;;;;;;7.20;4.17;;;;;;;;;;5030685;28;20385;-50
2021/07/18 00:13:19;;;;;;;4.30;3.90;;;;;;;;;;5030776;28;20501;-50
2021/07/18 00:15:45;;;;;;;3.70;3.40;;;;;;;;;;5030716;28;20465;-50
2021/07/18 00:18:11;;;;;;;4.00;3.60;;;;;;;;;;5030679;28;21047;-50
2021/07/18 00:20:37;;;;;;;9.33;4.00;;;;;;;;;;5030485;28;20512;-50
2021/07/18 00:23:03;;;;;;;4.77;4.30;;;;;;;;;;5030505;28;20499;-50
2021/07/18 00:25:32;;;;;;;4.17;3.80;;;;;;;;;;5030646;28;20410;-49
2021/07/18 00:27:58;;;;;;;6.77;3.60;;;;;;;;;;5030526;28;20426;-50
2021/07/18 00:30:24;;;;;;;5.33;3.87;;;;;;;;;;5030368;28;20443;-50
2021/07/18 00:32:50;;;;;;;3.80;3.50;;;;;;;;;;5030514;28;20387;-49
2021/07/18 00:35:16;;;;;;;4.00;3.70;;;;;;;;;;5033703;28;20406;-50
2021/07/18 00:37:41;;;;;;;4.07;3.70;;;;;;;;;;5034657;28;20902;-50
2021/07/18 00:40:09;;;;;;;6.97;4.20;;;;;;;;;;5034446;28;20824;-51
2021/07/18 00:42:35;;;;;;;6.90;3.77;;;;;;;;;;5034676;28;20383;-49
2021/07/18 00:45:01;;;;;;;4.20;3.80;;;;;;;;;;5034824;28;20760;-50
2021/07/18 00:47:27;;;;;;;4.10;3.73;;;;;;;;;;5034685;28;20401;-50
2021/07/18 00:49:53;;;;;;;6.27;4.33;;;;;;;;;;5034662;28;20456;-50
2021/07/18 00:52:19;;;;;;;9.43;4.17;;;;;;;;;;5034664;28;20436;-50
2021/07/18 00:54:45;;;;;;;4.70;4.30;;;;;;;;;;5034714;28;20411;-50
2021/07/18 00:57:12;;;;;;;6.73;4.17;;;;;;;;;;5034327;28;20515;-50
2021/07/18 00:59:39;;;;;;;4.90;3.90;;;;;;;;;;5034032;28;20451;-51
2021/07/18 01:02:05;;;;;;;5.47;4.17;;;;;;;;;;5033908;28;20418;-50
2021/07/18 01:04:32;;;;;;;7.50;4.50;;;;;;;;;;5033680;28;20395;-50
2021/07/18 01:06:57;;;;;;;4.53;3.60;;;;;;;;;;5033732;28;20430;-50
2021/07/18 01:09:24;;;;;;;4.77;4.37;;;;;;;;;;5033918;28;20493;-49
2021/07/18 01:11:50;;;;;;;4.87;4.33;;;;;;;;;;5034115;28;20427;-49
2021/07/18 01:14:19;;;;;;;4.73;4.07;;;;;;;;;;5033831;28;20379;-52
2021/07/18 01:16:46;;;;;;;4.37;3.97;;;;;;;;;;5033921;28;20373;-50
2021/07/18 01:19:12;;;;;;;3.90;3.60;;;;;;;;;;5033699;28;20399;-50
2021/07/18 01:21:39;;;;;;;5.63;4.40;;;;;;;;;;5033994;28;20825;-50
2021/07/18 01:24:05;;;;;;;3.93;3.60;;;;;;;;;;5033799;28;20411;-50
2021/07/18 01:26:32;;;;;;;4.30;3.90;;;;;;;;;;5033698;28;20379;-50
2021/07/18 01:28:58;;;;;;;6.70;4.53;;;;;;;;;;5033532;28;20422;-49
2021/07/18 01:31:24;;;;;;;6.17;3.80;;;;;;;;;;5033561;28;20375;-50
2021/07/18 01:33:50;;;;;;;4.40;4.00;;;;;;;;;;5033607;28;20402;-50
2021/07/18 01:36:16;;;;;;;8.30;4.93;;;;;;;;;;5033544;28;20406;-49
2021/07/18 01:38:42;;;;;;;4.13;3.83;;;;;;;;;;5033471;28;20401;-50
2021/07/18 01:41:08;;;;;;;4.60;4.20;;;;;;;;;;5033218;28;20474;-51
2021/07/18 01:43:34;;;;;;;6.53;4.40;;;;;;;;;;5033843;28;20406;-51
2021/07/18 01:46:00;;;;;;;9.50;5.03;;;;;;;;;;5032525;28;20433;-52
2021/07/18 01:48:26;;;;;;;5.93;4.70;;;;;;;;;;5033293;28;20523;-52
2021/07/18 01:50:52;;;;;;;9.10;4.87;;;;;;;;;;5033332;28;20384;-49
2021/07/18 01:53:17;;;;;;;4.80;4.13;;;;;;;;;;5033293;28;20387;-49
2021/07/18 01:55:43;;;;;;;7.80;5.00;;;;;;;;;;5033181;28;20402;-49
2021/07/18 01:58:09;;;;;;;5.17;4.00;;;;;;;;;;5033023;28;20414;-49
2021/07/18 02:00:35;;;;;;;6.70;4.87;;;;;;;;;;5032912;28;20930;-50
2021/07/18 02:03:01;;;;;;;9.17;4.80;;;;;;;;;;5033093;28;20533;-51
2021/07/18 02:05:27;;;;;;;21.23;5.57;;;;;;;;;;5033045;28;20386;-50
2021/07/18 02:07:53;;;;;;;7.40;4.40;;;;;;;;;;5032859;28;20512;-52
2021/07/18 02:10:21;;;;;;;8.53;4.60;;;;;;;;;;5032705;28;20381;-50
2021/07/18 02:12:47;;;;;;;4.60;4.20;;;;;;;;;;5033013;28;20410;-49
2021/07/18 02:15:15;;;;;;;9.10;4.57;;;;;;;;;;5032942;28;20407;-50
2021/07/18 02:17:41;;;;;;;7.47;5.00;;;;;;;;;;5032772;28;20428;-50
2021/07/18 02:20:11;;;;;;;11.07;5.27;;;;;;;;;;5032499;28;20633;-50
2021/07/18 02:22:47;;;;;;;7.53;4.87;;;;;;;;;;5032839;28;20382;-49
2021/07/18 02:25:17;;;;;;;5.80;4.97;;;;;;;;;;5032659;28;20410;-49
2021/07/18 02:27:43;;;;;;;6.07;4.97;;;;;;;;;;5032753;28;20492;-50
2021/07/18 02:30:11;;;;;;;6.33;4.93;;;;;;;;;;5032536;28;20441;-49
2021/07/18 02:32:37;;;;;;;7.73;4.77;;;;;;;;;;5032740;28;20380;-49
2021/07/18 02:35:05;;;;;;;5.30;4.90;;;;;;;;;;5032598;28;20410;-49
2021/07/18 02:37:31;;;;;;;5.30;4.80;;;;;;;;;;5032367;28;20426;-50
2021/07/18 02:39:56;;;;;;;6.47;5.37;;;;;;;;;;5032200;28;20558;-49
2021/07/18 02:42:22;;;;;;;11.63;5.03;;;;;;;;;;5032581;28;20377;-49
2021/07/18 02:44:48;;;;;;;7.43;5.60;;;;;;;;;;5032538;28;20380;-50
2021/07/18 02:47:14;;;;;;;7.50;5.60;;;;;;;;;;5032507;28;20434;-51
2021/07/18 02:49:40;;;;;;;9.33;5.43;;;;;;;;;;5032179;28;20445;-52
2021/07/18 02:52:08;;;;;;;6.73;5.53;;;;;;;;;;5032209;28;20410;-52
2021/07/18 02:54:34;;;;;;;6.17;5.47;;;;;;;;;;5032114;28;20407;-52
2021/07/18 02:57:00;;;;;;;8.53;5.80;;;;;;;;;;5032017;28;20977;-50
2021/07/18 02:59:26;;;;;;;5.57;5.00;;;;;;;;;;5031864;28;20466;-51
2021/07/18 03:01:52;;;;;;;7.20;5.53;;;;;;;;;;5032055;28;20965;-52
2021/07/18 03:04:18;;;;;;;13.50;5.40;;;;;;;;;;5031946;28;20402;-50
2021/07/18 03:06:44;;;;;;;8.57;5.10;;;;;;;;;;5031725;28;20740;-49
2021/07/18 03:09:11;;;;;;;239.93;20.47;;;;;;;;;;5031819;28;20430;-49
2021/07/18 03:11:37;;;;;;;7.90;4.70;;;;;;;;;;5032008;28;20427;-50
2021/07/18 03:14:03;;;;;;;9.73;4.97;;;;;;;;;;5031663;28;20972;-51
2021/07/18 03:16:29;;;;;;;10.30;5.53;;;;;;;;;;5031709;28;20747;-52
2021/07/18 03:18:55;;;;;;;171.00;26.87;;;;;;;;;;5031558;28;20385;-49
2021/07/18 03:21:20;;;;;;;7.00;5.00;;;;;;;;;;5031360;28;20436;-49
2021/07/18 03:23:46;;;;;;;8.47;5.93;;;;;;;;;;5031594;28;20402;-50
2021/07/18 03:26:12;;;;;;;6.47;5.77;;;;;;;;;;5031469;28;20385;-49
2021/07/18 03:28:38;;;;;;;11.80;5.80;;;;;;;;;;5031500;28;20462;-50
2021/07/18 03:31:04;;;;;;;12.37;6.00;;;;;;;;;;5031207;28;20473;-49
2021/07/18 03:33:30;;;;;;;70.63;7.33;;;;;;;;;;5031445;28;20418;-50
2021/07/18 03:35:56;;;;;;;6.30;5.40;;;;;;;;;;5031184;28;20449;-50
2021/07/18 03:38:22;;;;;;;5.57;4.97;;;;;;;;;;5031240;28;20426;-51
2021/07/18 03:40:48;;;;;;;5.77;4.90;;;;;;;;;;5030991;28;20459;-53
2021/07/18 03:43:14;;;;;;;8.87;5.57;;;;;;;;;;5031574;28;20461;-52
2021/07/18 03:45:40;;;;;;;7.80;5.37;;;;;;;;;;5031247;28;20377;-50
2021/07/18 03:48:06;;;;;;;7.30;4.60;;;;;;;;;;5031085;28;20401;-49
2021/07/18 03:50:32;;;;;;;6.40;5.07;;;;;;;;;;5030782;28;20503;-50
2021/07/18 03:52:58;;;;;;;6.60;5.20;;;;;;;;;;5031083;28;20421;-50
2021/07/18 03:55:24;;;;;;;6.13;3.50;;;;;;;;;;5031200;28;20410;-50
2021/07/18 03:57:50;;;;;;;6.40;5.23;;;;;;;;;;5030960;28;20540;-50
2021/07/18 04:00:17;;;;;;;8.50;5.53;;;;;;;;;;5030586;28;20454;-50
2021/07/18 04:02:43;;;;;;;8.13;4.97;;;;;;;;;;5031002;28;20441;-49
2021/07/18 04:05:09;;;;;;;4.27;3.87;;;;;;;;;;5030747;28;20471;-52
2021/07/18 04:07:35;;;;;;;2.40;2.00;;;;;;;;;;5031195;28;20437;-49
2021/07/18 04:10:02;;;;;;;2.50;2.27;;;;;;;;;;5030386;28;20406;-51
2021/07/18 04:12:28;;;;;;;2.53;2.40;;;;;;;;;;5031000;28;20406;-51
2021/07/18 04:14:55;;;;;;;6.77;5.90;;;;;;;;;;5030746;28;20476;-49
2021/07/18 04:17:21;;;;;;;6.90;4.90;;;;;;;;;;5030703;28;20397;-50
2021/07/18 04:19:47;;;;;;;6.97;5.53;;;;;;;;;;5030334;28;20428;-50
2021/07/18 04:22:13;;;;;;;7.20;5.17;;;;;;;;;;5012969;28;20403;-49
2021/07/18 04:24:39;;;;;;;6.07;5.37;;;;;;;;;;5030743;28;20767;-50
2021/07/18 04:27:05;;;;;;;11.53;5.50;;;;;;;;;;5012920;28;20529;-50
2021/07/18 04:29:31;;;;;;;8.43;6.03;;;;;;;;;;5030503;28;20394;-50
2021/07/18 04:31:57;;;;;;;5.47;4.97;;;;;;;;;;5030703;28;20410;-51
2021/07/18 04:34:23;;;;;;;10.00;6.13;;;;;;;;;;5030561;28;20441;-52
2021/07/18 04:36:48;;;;;;;5.93;5.10;;;;;;;;;;5030349;28;20406;-53
2021/07/18 04:39:14;;;;;;;6.50;5.23;;;;;;;;;;5030347;28;20430;-51
2021/07/18 04:41:40;;;;;;;6.93;5.90;;;;;;;;;;5030876;28;20394;-52
2021/07/18 04:44:06;;;;;;;10.83;6.30;;;;;;;;;;5030558;28;20431;-49
2021/07/18 04:46:34;;;;;;;8.60;6.60;;;;;;;;;;5030425;28;20430;-49
2021/07/18 04:49:00;;;;;;;7.23;5.67;;;;;;;;;;5030409;28;20464;-49
2021/07/18 04:51:26;;;;;;;7.33;5.70;;;;;;;;;;5030445;28;20867;-50
2021/07/18 04:53:52;;;;;;;8.67;5.07;;;;;;;;;;5030413;28;20397;-49
2021/07/18 04:56:18;;;;;;;6.93;5.53;;;;;;;;;;5030275;28;20498;-50
2021/07/18 04:58:44;;;;;;;9.70;5.40;;;;;;;;;;5030324;28;20927;-49
2021/07/18 05:01:10;;;;;;;11.67;6.13;;;;;;;;;;5029953;28;20464;-49
2021/07/18 05:03:36;;;;;;;14.70;6.47;;;;;;;;;;5030216;28;20528;-49
2021/07/18 05:06:05;;;;;;;7.63;6.20;;;;;;;;;;5030103;28;20776;-49
2021/07/18 05:08:32;;;;;;;8.53;6.00;;;;;;;;;;5030112;28;20457;-52
2021/07/18 05:10:58;;;;;;;9.73;5.47;;;;;;;;;;5029339;28;20406;-50
2021/07/18 05:13:24;;;;;;;5.50;5.00;;;;;;;;;;5030002;28;20439;-50
2021/07/18 05:15:49;;;;;;;5.33;4.83;;;;;;;;;;5030013;28;20402;-50
2021/07/18 05:18:15;;;;;;;8.50;5.50;;;;;;;;;;5029926;28;20435;-51
2021/07/18 05:20:42;;;;;;;8.03;5.83;;;;;;;;;;5029702;28;20450;-52
2021/07/18 05:23:08;;;;;;;10.97;6.27;;;;;;;;;;5033881;28;20426;-49
2021/07/18 05:25:35;;;;;;;11.47;7.07;;;;;;;;;;5033674;28;20407;-50
2021/07/18 05:28:01;;;;;;;15.40;7.97;;;;;;;;;;5033807;28;20424;-49
2021/07/18 05:30:28;;;;;;;6.63;6.00;;;;;;;;;;5033528;28;20524;-52
2021/07/18 05:32:54;;;;;;;11.50;5.70;;;;;;;;;;5033694;28;20999;-52
2021/07/18 05:35:20;;;;;;;10.03;5.87;;;;;;;;;;5033614;28;20403;-50
2021/07/18 05:37:46;;;;;;;10.60;5.97;;;;;;;;;;5033481;28;20495;-51
2021/07/18 05:40:12;;;;;;;8.03;5.27;;;;;;;;;;5033388;28;20507;-53
2021/07/18 05:42:39;;;;;;;7.57;5.63;;;;;;;;;;5033539;28;20413;-52
2021/07/18 05:45:06;;;;;;;10.03;5.70;;;;;;;;;;5034003;28;20492;-49
2021/07/18 05:47:34;;;;;;;8.23;6.40;;;;;;;;;;5033298;28;20400;-49
2021/07/18 05:50:00;;;;;;;9.03;6.10;;;;;;;;;;5033306;28;20413;-51
2021/07/18 05:52:26;;;;;;;7.73;6.30;;;;;;;;;;5033292;28;20397;-50
2021/07/18 05:54:52;;;;;;;8.00;7.30;;;;;;;;;;5033396;28;20408;-52
2021/07/18 05:57:18;;;;;;;11.03;6.27;;;;;;;;;;5033052;28;20451;-51
2021/07/18 05:59:45;;;;;;;10.43;5.70;;;;;;;;;;5032927;28;20865;-51
2021/07/18 06:02:11;;;;;;;7.07;6.27;;;;;;;;;;5032539;28;20411;-49
2021/07/18 06:04:37;;;;;;;6.77;6.10;;;;;;;;;;5030996;28;20841;-49
2021/07/18 06:07:03;;;;;;;6.70;6.03;;;;;;;;;;5031875;28;20457;-51
2021/07/18 06:09:30;;;;;;;11.23;6.03;;;;;;;;;;5017320;28;20397;-51
2021/07/18 06:11:56;;;;;;;7.90;6.93;;;;;;;;;;5012037;28;20464;-51
2021/07/18 06:14:21;;;;;;;8.50;5.97;;;;;;;;;;5013557;28;20402;-52
2021/07/18 06:16:47;;;;;;;5.50;5.00;;;;;;;;;;5012263;28;20377;-51
2021/07/18 06:19:13;;;;;;;9.63;5.90;;;;;;;;;;5013271;28;20411;-51
2021/07/18 06:21:39;;;;;;;9.17;6.67;;;;;;;;;;5013221;28;20941;-51
2021/07/18 06:24:05;;;;;;;9.90;6.40;;;;;;;;;;5013039;28;20422;-51
2021/07/18 06:26:32;;;;;;;7.70;6.87;;;;;;;;;;5013065;28;20437;-51
2021/07/18 06:29:00;;;;;;;9.77;6.03;;;;;;;;;;5013355;28;20393;-51
2021/07/18 06:31:26;;;;;;;7.00;5.17;;;;;;;;;;5012991;28;20417;-51
2021/07/18 06:33:52;;;;;;;9.63;6.10;;;;;;;;;;5012447;28;20403;-51
2021/07/18 06:36:18;;;;;;;10.13;5.40;;;;;;;;;;5012763;28;20435;-51
2021/07/18 06:38:44;;;;;;;7.20;3.93;;;;;;;;;;5012628;28;20481;-51
2021/07/18 06:41:10;;;;;;;6.70;5.33;;;;;;;;;;5012393;28;20455;-51
2021/07/18 06:43:36;;;;;;;13.63;5.30;;;;;;;;;;5012749;28;20395;-51
2021/07/18 06:46:02;;;;;;;5.23;4.57;;;;;;;;;;5012517;28;20399;-50
2021/07/18 06:48:28;;;;;;;5.70;5.20;;;;;;;;;;5012354;28;20431;-50
2021/07/18 06:50:54;;;;;;;8.40;5.17;;;;;;;;;;5012338;28;20408;-51
2021/07/18 06:53:20;;;;;;;7.40;4.53;;;;;;;;;;5012497;28;20435;-51
2021/07/18 06:55:46;;;;;;;19.17;4.30;;;;;;;;;;5012350;28;20411;-51
2021/07/18 06:58:12;;;;;;;5.87;3.87;;;;;;;;;;5012161;28;20412;-50
2021/07/18 07:00:38;;;;;;;6.80;4.60;;;;;;;;;;5012091;28;20458;-50
2021/07/18 07:03:04;;;;;;;4.63;4.03;;;;;;;;;;5012609;28;20398;-51
2021/07/18 07:05:30;;;;;;;4.40;4.00;;;;;;;;;;5012185;28;20768;-50
2021/07/18 07:07:56;;;;;;;3.97;3.30;;;;;;;;;;5011988;28;20442;-51
2021/07/18 07:10:22;;;;;;;6.93;3.60;;;;;;;;;;5012413;28;20405;-51
2021/07/18 07:12:49;;;;;;;6.43;3.60;;;;;;;;;;5012002;28;20414;-51
2021/07/18 07:15:15;;;;;;;4.37;3.47;;;;;;;;;;5012219;28;20410;-50
2021/07/18 07:17:41;;;;;;;4.30;3.17;;;;;;;;;;5011730;28;20492;-51
2021/07/18 07:20:08;;;;;;;3.77;3.07;;;;;;;;;;5011677;28;20442;-51
2021/07/18 07:22:35;;;;;;;3.73;3.37;;;;;;;;;;5011857;28;20400;-51
2021/07/18 07:25:02;;;;;;;4.10;3.70;;;;;;;;;;5011841;28;20410;-51
2021/07/18 07:27:31;;;;;;;5.20;3.30;;;;;;;;;;5011752;28;20437;-52
2021/07/18 07:29:57;;;;;;;6.30;3.13;;;;;;;;;;5011670;28;20401;-51
2021/07/18 07:32:23;;;;;;;3.23;2.97;;;;;;;;;;5011602;28;20410;-51
2021/07/18 07:34:49;;;;;;;13.73;3.43;;;;;;;;;;5011645;28;20450;-51
2021/07/18 07:37:15;;;;;;;4.33;3.00;;;;;;;;;;5011552;28;20427;-51
2021/07/18 07:39:40;;;;;;;5.00;4.40;;;;;;;;;;5011267;28;20546;-51
2021/07/18 07:42:07;;;;;;;3.67;3.37;;;;;;;;;;5011637;28;20400;-50
2021/07/18 07:44:33;;;;;;;6.40;3.27;;;;;;;;;;5010863;28;20609;-51
2021/07/18 07:46:59;;;;;;;11.77;3.70;;;;;;;;;;5011486;28;20521;-51
2021/07/18 07:49:25;;;;;;;7.90;3.80;;;;;;;;;;5011512;28;20409;-52
2021/07/18 07:51:51;;;;;;;4.97;3.03;;;;;;;;;;5011719;28;20407;-51
2021/07/18 07:54:17;;;;;;;3.87;3.40;;;;;;;;;;5011655;28;20447;-51
2021/07/18 07:56:43;;;;;;;3.97;3.33;;;;;;;;;;5011534;28;20483;-51
2021/07/18 07:59:09;;;;;;;5.70;3.57;;;;;;;;;;5011473;28;20772;-51
2021/07/18 08:01:35;;;;;;;3.73;3.07;;;;;;;;;;5011352;28;20544;-52
2021/07/18 08:04:01;;;;;;;3.57;3.13;;;;;;;;;;5011298;28;20403;-51
2021/07/18 08:06:27;;;;;;;2.50;2.30;;;;;;;;;;5011353;28;20990;-52
2021/07/18 08:08:53;;;;;;;6.63;3.10;;;;;;;;;;5010958;28;20445;-52
2021/07/18 08:11:19;;;;;;;2.20;2.00;;;;;;;;;;5011098;28;20421;-51
2021/07/18 08:13:45;;;;;;;2.10;1.97;;;;;;;;;;5011186;28;20414;-52
2021/07/18 08:16:11;;;;;;;3.30;2.07;;;;;;;;;;5011302;28;20408;-51
2021/07/18 08:18:38;;;;;;;3.30;3.00;;;;;;;;;;5010921;28;20461;-52
2021/07/18 08:21:04;;;;;;;3.27;2.93;;;;;;;;;;5010761;28;20821;-53
2021/07/18 08:23:31;;;;;;;3.70;2.47;;;;;;;;;;5010879;28;20405;-52
2021/07/18 08:25:57;;;;;;;2.30;2.10;;;;;;;;;;5010934;28;20406;-53
2021/07/18 08:28:24;;;;;;;2.30;2.10;;;;;;;;;;5010867;28;20415;-53
2021/07/18 08:30:50;;;;;;;2.10;2.00;;;;;;;;;;5010790;28;20486;-53
2021/07/18 08:33:16;;;;;;;2.23;2.03;;;;;;;;;;5010866;28;20458;-53
2021/07/18 08:35:42;;;;;;;2.60;2.00;;;;;;;;;;5010776;28;20982;-54
2021/07/18 08:38:08;;;;;;;3.10;2.10;;;;;;;;;;5010678;28;20423;-54
2021/07/18 08:40:35;;;;;;;1.70;1.60;;;;;;;;;;5010477;28;20601;-54
2021/07/18 08:43:01;;;;;;;2.00;1.80;;;;;;;;;;5010817;28;20407;-53
2021/07/18 08:45:27;;;;;;;1.87;1.77;;;;;;;;;;5010522;28;20453;-53
2021/07/18 08:47:53;;;;;;;4.13;2.40;;;;;;;;;;5010673;28;20427;-54
2021/07/18 08:50:19;;;;;;;2.17;1.70;;;;;;;;;;5010427;28;20410;-54
2021/07/18 08:52:51;;;;;;;3.67;1.83;;;;;;;;;;5010602;28;20502;-54
2021/07/18 08:55:19;;;;;;;2.73;2.03;;;;;;;;;;5011773;28;20435;-53
2021/07/18 08:57:45;;;;;;;2.80;1.90;;;;;;;;;;5014659;28;20839;-57
2021/07/18 09:00:11;;;;;;;3.93;2.00;;;;;;;;;;5014334;28;20450;-55
2021/07/18 09:02:39;;;;;;;2.10;2.00;;;;;;;;;;5015048;28;20411;-54
2021/07/18 09:05:06;;;;;;;1.90;1.80;;;;;;;;;;5014332;28;20470;-53
2021/07/18 09:07:41;;;;;;;2.80;1.87;;;;;;;;;;5014195;28;20443;-55
2021/07/18 09:10:07;;;;;;;3.03;1.80;;;;;;;;;;5014160;28;20437;-55
2021/07/18 09:12:34;;;;;;;1.73;1.63;;;;;;;;;;5014279;28;20407;-55
2021/07/18 09:15:00;;;;;;;2.80;1.63;;;;;;;;;;5014201;28;20908;-54
2021/07/18 09:17:32;;;;;;;4.67;1.73;;;;;;;;;;5014063;28;20801;-54
2021/07/18 09:20:02;;;;;;;6.13;2.50;;;;;;;;;;5014140;28;20458;-54
2021/07/18 09:22:28;;;;;;;2.07;1.77;;;;;;;;;;5014435;28;20410;-55
2021/07/18 09:24:57;;;;;;;1.90;1.80;;;;;;;;;;5014171;28;20399;-55
2021/07/18 09:27:33;;;;;;;1.70;1.60;;;;;;;;;;5014074;28;20501;-55
2021/07/18 09:30:08;;;;;;;3.17;1.83;;;;;;;;;;5013878;28;20407;-55
2021/07/18 09:32:35;;;;;;;1.93;1.83;;;;;;;;;;5014370;28;20403;-55
2021/07/18 09:35:04;;;;;;;2.50;1.60;;;;;;;;;;5014062;28;20492;-54
2021/07/18 09:37:31;;;;;;;1.87;1.77;;;;;;;;;;5014085;28;20423;-54
2021/07/18 09:40:01;;;;;;;2.90;1.67;;;;;;;;;;5013751;28;20453;-54
2021/07/18 09:42:35;;;;;;;1.73;1.60;;;;;;;;;;5014122;28;20526;-53
2021/07/18 09:45:03;;;;;;;2.20;2.00;;;;;;;;;;5013924;28;20773;-54
2021/07/18 09:47:29;;;;;;;4.90;1.80;;;;;;;;;;5013700;28;20427;-53
2021/07/18 09:49:55;;;;;;;4.80;2.10;;;;;;;;;;5013538;28;20438;-54
2021/07/18 09:52:28;;;;;;;1.70;1.60;;;;;;;;;;5013780;28;20183;-54
2021/07/18 09:54:56;;;;;;;1.90;1.80;;;;;;;;;;5013627;28;20263;-53
2021/07/18 09:57:28;;;;;;;2.37;2.27;;;;;;;;;;5013397;28;21041;-53
2021/07/18 09:59:54;;;;;;;2.83;1.93;;;;;;;;;;5013171;28;20876;-55
2021/07/18 10:02:31;;;;;;;4.17;2.03;;;;;;;;;;5015400;28;20415;-51
2021/07/18 10:04:57;;;;;;;2.20;2.00;;;;;;;;;;5034951;28;20418;-54
2021/07/18 10:07:30;;;;;;;2.17;2.07;;;;;;;;;;5033205;28;20445;-53
2021/07/18 10:09:56;;;;;;;3.87;1.93;;;;;;;;;;5033280;28;20390;-54
2021/07/18 10:12:22;;;;;;;2.73;2.53;;;;;;;;;;5033031;28;20406;-54
2021/07/18 10:17:18;;;;;;;2.33;2.23;;;;;;;;;;5028803;28;20219;-44
2021/07/18 10:19:44;;;;;;;2.23;1.83;;;;;;;;;;5033884;28;20426;-44
2021/07/18 10:22:11;;;;;;;1.80;1.70;;;;;;;;;;5032643;28;20446;-45
2021/07/18 10:24:39;;;;;;;2.77;2.23;;;;;;;;;;5032830;28;20401;-45
2021/07/18 10:27:05;;;;;;;2.10;2.00;;;;;;;;;;5032552;28;20414;-44
2021/07/18 10:29:32;;;;;;;2.70;2.07;;;;;;;;;;5032690;28;20747;-44
2021/07/18 10:32:01;;;;;;;2.53;2.03;;;;;;;;;;5060481;22;20486;-53
2021/07/18 10:34:29;;;;;;;1.87;1.77;;;;;;;;;;5032628;28;20425;-53
2021/07/18 10:36:55;;;;;;;1.80;1.70;;;;;;;;;;5032262;28;20757;-54
2021/07/18 10:39:28;;;;;;;2.20;2.10;;;;;;;;;;5032555;28;20398;-53
2021/07/18 10:41:55;;;;;;;3.63;2.40;;;;;;;;;;5032486;28;20437;-53
2021/07/18 10:44:21;;;;;;;2.27;2.07;;;;;;;;;;5032545;28;20390;-53
2021/07/18 10:46:47;;;;;;;2.50;2.30;;;;;;;;;;5032027;28;20490;-53
2021/07/18 10:49:14;;;;;;;1.93;1.83;;;;;;;;;;5032705;28;20402;-52
2021/07/18 10:51:44;;;;;;;2.60;1.93;;;;;;;;;;5032265;28;20187;-54
2021/07/18 10:54:11;;;;;;;2.30;2.10;;;;;;;;;;5032307;28;20460;-53
2021/07/18 10:56:41;;;;;;;3.27;2.10;;;;;;;;;;5031913;28;20460;-53
2021/07/18 10:59:07;;;;;;;2.03;1.83;;;;;;;;;;5032287;28;20725;-54
2021/07/18 11:01:35;;;;;;;1.80;1.70;;;;;;;;;;5031920;28;20462;-53
2021/07/18 11:04:01;;;;;;;3.97;2.80;;;;;;;;;;5032333;28;20172;-52
2021/07/18 11:06:29;;;;;;;3.60;2.10;;;;;;;;;;5031728;28;20403;-53
2021/07/18 11:09:13;;;;;;;2.83;2.40;;;;;;;;;;5032102;28;20399;-52
2021/07/18 11:11:42;;;;;;;6.40;2.60;;;;;;;;;;5031840;28;20418;-52
2021/07/18 11:14:21;;;;;;;3.47;2.10;;;;;;;;;;5031821;28;20411;-54
2021/07/18 11:16:50;;;;;;;3.03;2.27;;;;;;;;;;5031497;28;20898;-53
2021/07/18 11:19:35;;;;;;;2.33;1.97;;;;;;;;;;5030815;28;20883;-53
2021/07/18 11:22:05;;;;;;;4.50;2.93;;;;;;;;;;5031996;28;20441;-52
2021/07/18 11:24:53;;;;;;;5.80;2.20;;;;;;;;;;5031581;28;20412;-53
2021/07/18 11:27:35;;;;;;;2.40;2.20;;;;;;;;;;5030426;28;20409;-53
2021/07/18 11:30:06;;;;;;;5.33;2.20;;;;;;;;;;5031425;28;20402;-53
2021/07/18 11:32:33;;;;;;;2.17;2.07;;;;;;;;;;5031298;28;20425;-53
2021/07/18 11:35:00;;;;;;;3.13;2.80;;;;;;;;;;5031102;28;20825;-53
2021/07/18 11:37:27;;;;;;;2.17;2.07;;;;;;;;;;5031371;28;20468;-54
2021/07/18 11:40:00;;;;;;;2.67;2.47;;;;;;;;;;5031197;28;20499;-53
2021/07/18 11:42:27;;;;;;;2.57;2.37;;;;;;;;;;5031031;28;20437;-52
2021/07/18 11:44:53;;;;;;;2.50;2.30;;;;;;;;;;5031043;28;20949;-53
2021/07/18 11:47:19;;;;;;;2.67;2.47;;;;;;;;;;5030962;28;20422;-53
2021/07/18 11:49:46;;;;;;;2.33;2.13;;;;;;;;;;5031190;28;20517;-53
2021/07/18 11:52:14;;;;;;;4.80;2.23;;;;;;;;;;5031323;28;20423;-53
2021/07/18 11:54:41;;;;;;;3.07;2.50;;;;;;;;;;5031050;28;20922;-53
2021/07/18 11:57:13;;;;;;;2.50;2.30;;;;;;;;;;5030669;28;20395;-54
2021/07/18 11:59:39;;;;;;;3.00;2.50;;;;;;;;;;5030927;28;20422;-54
2021/07/18 12:02:06;;;;;;;6.87;2.70;;;;;;;;;;5031200;28;20422;-53
2021/07/18 12:04:32;;;;;;;2.40;2.30;;;;;;;;;;5031112;28;20396;-52
2021/07/18 12:07:02;;;;;;;4.70;2.70;;;;;;;;;;5030681;28;20401;-52
2021/07/18 12:09:37;;;;;;;2.70;2.50;;;;;;;;;;5030896;28;20398;-53
2021/07/18 12:12:04;;;;;;;3.27;2.97;;;;;;;;;;5030712;28;20413;-53
2021/07/18 12:14:33;;;;;;;2.80;2.60;;;;;;;;;;5031129;28;20429;-53
2021/07/18 12:17:00;;;;;;;6.10;2.57;;;;;;;;;;5030509;28;20425;-52
2021/07/18 12:19:27;;;;;;;2.70;2.50;;;;;;;;;;5030672;28;20828;-52
2021/07/18 12:21:54;;;;;;;2.20;2.10;;;;;;;;;;5030547;28;20500;-54
2021/07/18 12:24:21;;;;;;;3.50;2.73;;;;;;;;;;5030634;28;20883;-52
2021/07/18 12:27:00;;;;;;;4.93;2.40;;;;;;;;;;5030306;28;20781;-53
2021/07/18 12:29:28;;;;;;;3.67;2.60;;;;;;;;;;5030429;28;20907;-53
2021/07/18 12:31:54;;;;;;;3.50;2.50;;;;;;;;;;5030270;28;20445;-53
2021/07/18 12:34:25;;;;;;;2.77;2.40;;;;;;;;;;5030489;28;20764;-53
2021/07/18 12:36:52;;;;;;;3.60;2.37;;;;;;;;;;5030407;28;20427;-52
2021/07/18 12:39:19;;;;;;;2.30;2.13;;;;;;;;;;5030455;28;20471;-53
2021/07/18 12:41:45;;;;;;;7.33;2.87;;;;;;;;;;5030640;28;20508;-53
2021/07/18 12:44:12;;;;;;;3.40;2.07;;;;;;;;;;5030816;28;20776;-53
2021/07/18 12:46:38;;;;;;;3.97;2.17;;;;;;;;;;5030488;28;20485;-54
2021/07/18 12:49:07;;;;;;;2.07;1.97;;;;;;;;;;5030769;28;20521;-52
2021/07/18 12:51:33;;;;;;;3.67;2.30;;;;;;;;;;5030584;28;20222;-52
2021/07/18 12:53:59;;;;;;;3.43;2.60;;;;;;;;;;5030325;28;20407;-52
2021/07/18 12:56:25;;;;;;;2.80;2.40;;;;;;;;;;5030320;28;20801;-52
2021/07/18 12:58:51;;;;;;;2.60;2.40;;;;;;;;;;5030606;28;20667;-53
2021/07/18 13:01:18;;;;;;;3.10;2.40;;;;;;;;;;5030373;28;20457;-52
2021/07/18 13:03:51;;;;;;;3.73;2.10;;;;;;;;;;5022853;28;20827;-52
2021/07/18 13:06:18;;;;;;;2.30;2.10;;;;;;;;;;5029939;28;20841;-52
2021/07/18 13:08:50;;;;;;;3.90;2.40;;;;;;;;;;5030301;28;20770;-52
2021/07/18 13:11:34;;;;;;;3.57;2.63;;;;;;;;;;5030151;28;20499;-53
2021/07/18 13:14:18;;;;;;;2.37;2.17;;;;;;;;;;5030257;28;20485;-52
2021/07/18 13:16:44;;;;;;;2.60;2.40;;;;;;;;;;5029838;28;20402;-52
2021/07/18 13:19:12;;;;;;;4.77;2.50;;;;;;;;;;5030308;28;20406;-53
2021/07/18 13:21:38;;;;;;;6.90;2.33;;;;;;;;;;5030185;28;20489;-54
2021/07/18 13:24:04;;;;;;;2.83;1.87;;;;;;;;;;5030212;28;20406;-53
2021/07/18 13:26:34;;;;;;;3.73;2.50;;;;;;;;;;5029858;28;20398;-53
2021/07/18 13:29:12;;;;;;;2.63;2.23;;;;;;;;;;5030157;28;20402;-52
2021/07/18 13:31:39;;;;;;;2.60;2.03;;;;;;;;;;5029767;28;20450;-53
2021/07/18 13:34:05;;;;;;;4.93;2.83;;;;;;;;;;5030239;28;20456;-52
2021/07/18 13:36:31;;;;;;;4.10;2.40;;;;;;;;;;5029691;28;20402;-53
2021/07/18 13:39:26;;;;;;;3.53;2.20;;;;;;;;;;5030038;28;20482;-52
2021/07/18 13:42:05;;;;;;;7.47;2.37;;;;;;;;;;5009104;28;20504;-52
2021/07/18 13:44:32;;;;;;;3.70;1.90;;;;;;;;;;5033605;28;20414;-53
2021/07/18 13:46:58;;;;;;;4.97;2.40;;;;;;;;;;5033316;28;20414;-53
2021/07/18 13:49:24;;;;;;;3.30;2.60;;;;;;;;;;5033578;28;20780;-54
2021/07/18 13:51:53;;;;;;;3.60;2.40;;;;;;;;;;5033260;28;20916;-53
2021/07/18 13:54:19;;;;;;;3.07;2.03;;;;;;;;;;5033337;28;20160;-53
2021/07/18 13:56:45;;;;;;;2.67;2.30;;;;;;;;;;5033116;28;20891;-52
2021/07/18 13:59:11;;;;;;;4.00;2.40;;;;;;;;;;5033477;28;20417;-52
2021/07/18 14:01:37;;;;;;;3.60;2.70;;;;;;;;;;5033110;28;20457;-54
2021/07/18 14:04:04;;;;;;;4.47;2.63;;;;;;;;;;5033104;28;20410;-54
2021/07/18 14:06:30;;;;;;;3.97;2.23;;;;;;;;;;5032968;28;20409;-54
2021/07/18 14:08:56;;;;;;;3.53;2.80;;;;;;;;;;5032921;28;20402;-54
2021/07/18 14:11:22;;;;;;;5.60;2.90;;;;;;;;;;5033207;28;20473;-54
2021/07/18 14:13:48;;;;;;;5.43;2.40;;;;;;;;;;5031183;28;20442;-54
2021/07/18 14:16:14;;;;;;;2.83;2.33;;;;;;;;;;5030649;28;20422;-54
2021/07/18 14:18:40;;;;;;;3.57;2.90;;;;;;;;;;5032680;28;20537;-54
2021/07/18 14:21:06;;;;;;;4.37;2.87;;;;;;;;;;5032774;28;20492;-54
2021/07/18 14:23:32;;;;;;;3.67;2.60;;;;;;;;;;5032729;28;20487;-54
2021/07/18 14:25:59;;;;;;;3.03;2.73;;;;;;;;;;5032576;28;20402;-54
2021/07/18 14:28:26;;;;;;;3.00;2.80;;;;;;;;;;5032771;28;20403;-54
2021/07/18 14:30:52;;;;;;;3.40;3.17;;;;;;;;;;5032660;28;20446;-54
2021/07/18 14:33:19;;;;;;;3.77;3.07;;;;;;;;;;5032644;28;20405;-54
2021/07/18 14:35:45;;;;;;;3.80;2.80;;;;;;;;;;5032397;28;20776;-54
2021/07/18 14:38:11;;;;;;;3.27;3.07;;;;;;;;;;5032498;28;20409;-54
2021/07/18 14:40:37;;;;;;;3.60;3.30;;;;;;;;;;5032334;28;20815;-54
2021/07/18 14:43:04;;;;;;;3.13;2.93;;;;;;;;;;5032569;28;20879;-54